Time;durP1;ratioP1;P1;durP2;ratioP2;P2;SDS_P1;SDS_P2;PMS_P1;PMS_P2;Temp;Humidity;BMP_temperature;BMP_pressure;BME280_temperature;BME280_humidity;BME280_pressure;Samples;Min_cycle;Max_cycle;Signal;HPM_P1;HPM_P2
2022/08/11 00:01:13;;;;;;;7.97;4.07;;;22.00;50.80;;;;;;5060530;28;20495;-77
2022/08/11 00:03:46;;;;;;;10.63;3.93;;;22.10;50.80;;;;;;5078224;28;21257;-78
2022/08/11 00:06:15;;;;;;;7.80;4.30;;;22.10;50.80;;;;;;5082790;28;20470;-78
2022/08/11 00:08:49;;;;;;;6.10;3.77;;;22.10;50.80;;;;;;5079000;28;20976;-78
2022/08/11 00:11:18;;;;;;;7.90;4.00;;;22.10;50.80;;;;;;5082400;28;20461;-78
2022/08/11 00:13:48;;;;;;;8.10;4.10;;;22.00;50.80;;;;;;5085615;28;20512;-78
2022/08/11 00:16:18;;;;;;;7.03;3.80;;;22.00;50.90;;;;;;5064645;28;21303;-78
2022/08/11 00:18:51;;;;;;;8.63;4.33;;;22.00;51.00;;;;;;5084327;28;20475;-79
2022/08/11 00:21:21;;;;;;;6.17;3.80;;;22.00;51.00;;;;;;5066354;28;20473;-76
2022/08/11 00:24:10;;;;;;;8.47;4.37;;;22.00;51.00;;;;;;5084140;28;20962;-78
2022/08/11 00:26:38;;;;;;;9.07;3.93;;;22.00;51.00;;;;;;5068988;28;20454;-76
2022/08/11 00:29:09;;;;;;;7.53;3.50;;;21.90;51.10;;;;;;5096514;28;20461;-77
2022/08/11 00:31:43;;;;;;;12.67;4.97;;;21.90;51.10;;;;;;5082973;28;20885;-77
2022/08/11 00:34:13;;;;;;;6.07;4.20;;;21.90;51.20;;;;;;5088297;28;20462;-77
2022/08/11 00:36:47;;;;;;;8.80;4.10;;;21.90;51.30;;;;;;5081017;28;20458;-78
2022/08/11 00:39:18;;;;;;;11.50;4.20;;;21.90;51.30;;;;;;5063458;28;21026;-78
2022/08/11 00:42:04;;;;;;;6.63;4.00;;;21.90;51.40;;;;;;5065589;28;20477;-77
2022/08/11 00:44:40;;;;;;;8.43;4.40;;;21.80;51.40;;;;;;5080132;28;20465;-78
2022/08/11 00:47:18;;;;;;;9.20;4.27;;;21.80;51.30;;;;;;5077319;28;20576;-78
2022/08/11 00:49:58;;;;;;;7.30;4.20;;;21.70;51.40;;;;;;5065743;28;20466;-78
2022/08/11 00:52:44;;;;;;;7.93;4.13;;;21.60;51.50;;;;;;5089927;28;20517;-78
2022/08/11 00:55:42;;;;;;;8.43;3.90;;;21.60;51.70;;;;;;5064372;28;20454;-79
2022/08/11 00:58:58;;;;;;;8.00;3.77;;;21.50;51.80;;;;;;5083257;28;20480;-78
2022/08/11 01:01:46;;;;;;;6.20;3.67;;;21.50;51.80;;;;;;5077070;28;21019;-78
2022/08/11 01:04:42;;;;;;;9.07;3.80;;;21.40;51.90;;;;;;5079636;28;20477;-78
2022/08/11 01:07:41;;;;;;;7.27;3.50;;;21.40;52.00;;;;;;5063883;28;20469;-78
2022/08/11 01:11:16;;;;;;;7.43;3.87;;;21.30;52.10;;;;;;5064553;28;20473;-78
2022/08/11 01:14:10;;;;;;;7.17;3.73;;;21.30;52.20;;;;;;5038984;28;20482;-77
2022/08/11 01:17:04;;;;;;;8.00;4.17;;;21.30;52.20;;;;;;5081157;28;20475;-77
2022/08/11 01:19:59;;;;;;;12.03;4.43;;;21.20;52.10;;;;;;5085440;28;20552;-77
2022/08/11 01:23:17;;;;;;;8.20;3.80;;;21.10;52.20;;;;;;5091741;28;20488;-78
2022/08/11 01:26:20;;;;;;;6.03;4.10;;;21.10;52.40;;;;;;5050097;28;20473;-78
2022/08/11 01:29:24;;;;;;;7.97;4.53;;;21.10;52.50;;;;;;5081404;28;20463;-77
2022/08/11 01:32:14;;;;;;;7.60;4.43;;;21.00;52.50;;;;;;5062758;28;20476;-78
2022/08/11 01:35:20;;;;;;;7.40;4.33;;;21.00;52.60;;;;;;5076988;28;20469;-78
2022/08/11 01:38:31;;;;;;;13.13;4.60;;;21.00;52.60;;;;;;5081906;28;21335;-76
2022/08/11 01:41:22;;;;;;;7.17;4.10;;;20.90;52.70;;;;;;4996186;28;20461;-76
2022/08/11 01:47:49;;;;;;;10.07;4.30;;;20.80;52.70;;;;;;5074345;28;20474;-77
2022/08/11 01:50:09;;;;;;;7.77;4.33;;;20.80;52.70;;;;;;5079009;28;20498;-77
2022/08/11 01:52:56;;;;;;;6.60;4.20;;;20.70;52.70;;;;;;5078856;28;20562;-75
2022/08/11 01:55:30;;;;;;;10.03;4.40;;;20.70;52.80;;;;;;5079662;28;20472;-76
2022/08/11 01:58:11;;;;;;;7.10;4.50;;;20.70;52.80;;;;;;5078372;28;20466;-75
2022/08/11 02:00:50;;;;;;;6.30;3.80;;;20.60;53.00;;;;;;5064429;28;20465;-77
2022/08/11 02:03:26;;;;;;;8.77;4.77;;;20.60;53.00;;;;;;5077387;28;20477;-77
2022/08/11 02:06:01;;;;;;;10.17;4.13;;;20.60;53.00;;;;;;5078864;28;20548;-77
2022/08/11 02:08:44;;;;;;;5.87;4.00;;;20.60;53.00;;;;;;5062972;28;21190;-76
2022/08/11 02:11:30;;;;;;;11.53;5.40;;;20.50;53.00;;;;;;5089709;28;20497;-77
2022/08/11 02:14:24;;;;;;;5.77;3.73;;;20.50;53.10;;;;;;5080974;28;20457;-76
2022/08/11 02:17:10;;;;;;;7.53;3.87;;;20.40;53.20;;;;;;5068077;28;20485;-76
2022/08/11 02:25:37;;;;;;;9.80;4.80;;;20.30;53.40;;;;;;5082916;28;20956;-76
2022/08/11 02:28:12;;;;;;;6.60;4.07;;;20.30;53.50;;;;;;5078509;28;20491;-76
2022/08/11 02:34:14;;;;;;;6.37;4.20;;;20.20;53.70;;;;;;5079169;28;20462;-77
2022/08/11 02:36:55;;;;;;;7.90;4.40;;;20.20;53.80;;;;;;5082066;28;20456;-77
2022/08/11 02:39:31;;;;;;;7.10;4.37;;;20.20;53.90;;;;;;5064107;28;20475;-77
2022/08/11 02:42:22;;;;;;;8.00;4.30;;;20.20;54.00;;;;;;5079564;28;20476;-77
2022/08/11 02:45:19;;;;;;;9.13;4.60;;;20.10;54.10;;;;;;5062159;28;20446;-77
2022/08/11 02:51:06;;;;;;;7.40;4.43;;;20.00;54.00;;;;;;4988894;28;20467;-77
2022/08/11 02:53:43;;;;;;;9.83;4.87;;;20.00;54.00;;;;;;4989377;28;20484;-77
2022/08/11 02:56:43;;;;;;;10.20;4.77;;;19.90;54.10;;;;;;5058404;28;21030;-77
2022/08/11 03:02:23;;;;;;;7.90;5.03;;;19.90;54.20;;;;;;5080924;28;20485;-77
2022/08/11 03:05:01;;;;;;;11.27;4.43;;;19.80;54.10;;;;;;5080474;28;20999;-76
2022/08/11 03:07:34;;;;;;;7.50;4.30;;;19.80;54.20;;;;;;5077578;28;20460;-77
2022/08/11 03:10:10;;;;;;;11.57;5.17;;;19.80;54.20;;;;;;5081605;28;20460;-77
2022/08/11 03:18:37;;;;;;;6.37;4.03;;;19.60;54.20;;;;;;5073111;28;20456;-77
2022/08/11 03:21:10;;;;;;;8.13;4.80;;;19.60;54.30;;;;;;5064563;28;20462;-77
2022/08/11 03:23:47;;;;;;;10.07;4.47;;;19.50;54.40;;;;;;5082778;28;20473;-77
2022/08/11 03:26:25;;;;;;;10.73;5.27;;;19.50;54.50;;;;;;5084763;28;20509;-77
2022/08/11 03:29:04;;;;;;;8.83;4.57;;;19.50;54.60;;;;;;5081134;28;20463;-77
2022/08/11 03:31:41;;;;;;;7.60;4.30;;;19.50;54.70;;;;;;5080456;28;20478;-77
2022/08/11 03:34:17;;;;;;;8.17;4.93;;;19.50;54.80;;;;;;5080052;28;20453;-76
2022/08/11 03:40:13;;;;;;;6.87;4.50;;;19.40;54.80;;;;;;5080461;28;20533;-77
2022/08/11 03:42:47;;;;;;;11.90;4.60;;;19.40;54.80;;;;;;5092329;28;20487;-76
2022/08/11 03:45:28;;;;;;;9.03;4.93;;;19.40;54.70;;;;;;5081797;28;20466;-76
2022/08/11 03:48:08;;;;;;;8.50;5.50;;;19.30;54.80;;;;;;5082082;28;20451;-77
2022/08/11 03:50:54;;;;;;;13.63;4.80;;;19.30;54.80;;;;;;5078765;28;20463;-77
2022/08/11 03:53:43;;;;;;;7.00;4.23;;;19.30;54.90;;;;;;5066360;28;20479;-77
2022/08/11 03:56:57;;;;;;;10.97;5.03;;;19.30;55.00;;;;;;5078409;28;20456;-77
2022/08/11 03:59:58;;;;;;;7.43;3.93;;;19.30;55.10;;;;;;5079494;28;20480;-77
2022/08/11 04:02:57;;;;;;;18.63;4.73;;;19.20;55.20;;;;;;5048776;28;20494;-78
2022/08/11 04:06:06;;;;;;;7.53;4.40;;;19.20;55.20;;;;;;5077277;28;20459;-77
2022/08/11 04:09:13;;;;;;;7.33;4.40;;;19.20;55.20;;;;;;5083793;28;21023;-77
2022/08/11 04:12:09;;;;;;;7.00;4.80;;;19.10;55.20;;;;;;5056592;28;20443;-77
2022/08/11 04:18:50;;;;;;;8.00;4.90;;;19.10;55.30;;;;;;5095944;28;20471;-77
2022/08/11 04:21:48;;;;;;;9.23;4.50;;;19.10;55.40;;;;;;5076727;28;20493;-77
2022/08/11 04:24:48;;;;;;;9.73;5.17;;;19.10;55.40;;;;;;5079183;28;20452;-77
2022/08/11 04:27:35;;;;;;;10.43;4.83;;;19.10;55.40;;;;;;5055166;28;20496;-77
2022/08/11 04:30:11;;;;;;;10.43;4.67;;;19.10;55.30;;;;;;5065772;28;20836;-79
2022/08/11 04:33:01;;;;;;;8.13;4.83;;;19.10;55.30;;;;;;5078339;28;20580;-78
2022/08/11 04:35:42;;;;;;;5.63;4.27;;;19.10;55.30;;;;;;5066321;28;20459;-77
2022/08/11 04:38:53;;;;;;;8.87;4.70;;;19.10;55.40;;;;;;5072462;28;20469;-76
2022/08/11 04:45:25;;;;;;;8.80;5.50;;;19.10;55.60;;;;;;5082676;28;20493;-76
2022/08/11 05:03:31;;;;;;;6.90;4.50;;;19.30;56.10;;;;;;5091683;28;20466;-78
2022/08/11 05:06:35;;;;;;;12.03;4.83;;;19.50;56.30;;;;;;5066165;28;20453;-78
2022/08/11 05:09:28;;;;;;;8.47;4.93;;;19.60;56.40;;;;;;5066184;28;20819;-77
2022/08/11 05:12:13;;;;;;;8.87;4.97;;;19.80;56.80;;;;;;5087788;28;20480;-78
2022/08/11 05:35:06;;;;;;;7.80;4.67;;;26.60;49.50;;;;;;5083765;28;20449;-77
2022/08/11 05:37:41;;;;;;;9.37;4.77;;;27.40;48.80;;;;;;5085244;28;20536;-77
2022/08/11 05:57:21;;;;;;;8.37;3.93;;;32.20;43.80;;;;;;5087244;28;20453;-77
2022/08/11 06:00:12;;;;;;;7.87;4.30;;;32.80;42.90;;;;;;5065562;28;20511;-77
2022/08/11 06:02:42;;;;;;;7.80;3.80;;;33.40;42.20;;;;;;5085818;28;20469;-78
2022/08/11 06:05:12;;;;;;;6.97;4.47;;;33.90;41.60;;;;;;5085042;28;20455;-76
2022/08/11 06:07:41;;;;;;;7.60;3.93;;;34.20;40.80;;;;;;5084867;28;20491;-76
2022/08/11 06:10:27;;;;;;;6.80;3.90;;;33.50;40.00;;;;;;5085338;28;20443;-76
2022/08/11 06:12:57;;;;;;;11.13;4.27;;;31.90;39.90;;;;;;5083311;28;20476;-76
2022/08/11 06:15:27;;;;;;;8.73;4.37;;;30.20;41.00;;;;;;5066488;28;20800;-76
2022/08/11 06:17:55;;;;;;;5.90;3.60;;;28.70;42.10;;;;;;5070862;28;20467;-77
2022/08/11 06:20:24;;;;;;;7.63;4.27;;;27.50;43.20;;;;;;5087077;28;20474;-78
2022/08/11 06:22:58;;;;;;;11.87;4.10;;;26.50;44.20;;;;;;5082017;28;20511;-77
2022/08/11 06:25:31;;;;;;;7.77;4.90;;;25.70;45.20;;;;;;5086782;28;20464;-77
2022/08/11 06:28:00;;;;;;;8.70;4.40;;;25.10;46.10;;;;;;5067527;28;20449;-76
2022/08/11 06:30:39;;;;;;;6.97;4.33;;;24.60;46.90;;;;;;5084904;28;20470;-77
2022/08/11 06:33:10;;;;;;;9.30;4.87;;;24.10;47.60;;;;;;5067662;28;20498;-78
2022/08/11 06:35:57;;;;;;;8.50;4.47;;;23.80;48.30;;;;;;5085845;28;20508;-78
2022/08/11 06:38:46;;;;;;;7.73;4.37;;;23.50;49.00;;;;;;5067470;28;21035;-78
2022/08/11 06:41:30;;;;;;;7.10;4.40;;;23.30;49.50;;;;;;5086179;28;20468;-77
2022/08/11 06:44:16;;;;;;;8.50;4.70;;;23.20;50.10;;;;;;5087475;28;20431;-78
2022/08/11 06:46:49;;;;;;;8.27;4.40;;;23.00;50.40;;;;;;5086851;28;20493;-77
2022/08/11 06:52:07;;;;;;;11.97;4.57;;;22.90;51.00;;;;;;5086556;28;20996;-78
2022/08/11 06:55:04;;;;;;;9.23;4.93;;;22.80;51.40;;;;;;5071163;28;20437;-78
2022/08/11 07:00:30;;;;;;;10.30;4.80;;;22.80;51.90;;;;;;5071820;28;20468;-78
2022/08/11 07:03:08;;;;;;;8.20;4.33;;;22.80;52.10;;;;;;5072509;28;20467;-78
2022/08/11 07:05:45;;;;;;;8.00;3.60;;;22.90;52.30;;;;;;5072505;28;20506;-78
2022/08/11 07:17:31;;;;;;;6.63;3.70;;;23.00;53.00;;;;;;5071592;28;20507;-77
2022/08/11 07:31:23;;;;;;;13.97;4.03;;;23.30;53.50;;;;;;5072098;28;20491;-78
2022/08/11 07:33:56;;;;;;;6.10;3.37;;;23.30;53.40;;;;;;5093874;28;20465;-76
2022/08/11 07:36:42;;;;;;;9.20;3.90;;;23.40;53.40;;;;;;5091104;28;20469;-78
2022/08/11 07:39:16;;;;;;;9.57;4.83;;;23.40;53.50;;;;;;5073655;28;20835;-77
2022/08/11 07:41:47;;;;;;;6.87;4.20;;;23.50;53.50;;;;;;5092551;28;20464;-78
2022/08/11 07:44:16;;;;;;;8.60;3.63;;;23.60;53.40;;;;;;5074914;28;20942;-76
2022/08/11 07:52:32;;;;;;;7.33;3.80;;;23.80;53.40;;;;;;5071355;28;20475;-77
2022/08/11 07:55:02;;;;;;;6.33;3.40;;;23.90;53.40;;;;;;5090095;28;20469;-78
2022/08/11 08:20:38;;;;;;;11.70;4.00;;;24.40;52.80;;;;;;5089049;28;20450;-78
2022/08/11 08:23:07;;;;;;;6.90;3.30;;;24.50;52.70;;;;;;5071027;28;20487;-77
2022/08/11 08:25:39;;;;;;;5.70;3.33;;;24.50;52.40;;;;;;5070664;28;20455;-78
2022/08/11 08:28:10;;;;;;;8.37;3.93;;;24.60;52.30;;;;;;5088297;28;20428;-78
2022/08/11 08:30:47;;;;;;;14.33;3.80;;;24.70;52.30;;;;;;5078193;28;20471;-78
2022/08/11 08:33:18;;;;;;;6.70;3.23;;;24.70;52.30;;;;;;5086393;28;21075;-78
2022/08/11 08:35:48;;;;;;;7.70;3.40;;;24.80;52.10;;;;;;5064763;28;20482;-78
2022/08/11 08:38:21;;;;;;;7.37;3.70;;;24.90;52.00;;;;;;5088115;28;20459;-78
2022/08/11 08:40:53;;;;;;;8.13;3.57;;;24.90;51.90;;;;;;5087748;28;20452;-78
2022/08/11 08:43:24;;;;;;;6.73;3.37;;;25.00;51.80;;;;;;5088549;28;20470;-77
2022/08/11 08:45:55;;;;;;;8.73;3.73;;;25.00;51.60;;;;;;5082836;28;20521;-77
2022/08/11 08:48:26;;;;;;;5.93;3.10;;;25.10;51.40;;;;;;5088174;28;20435;-78
2022/08/11 08:53:50;;;;;;;7.37;3.40;;;25.30;50.90;;;;;;5069915;28;20526;-77
2022/08/11 08:56:27;;;;;;;7.03;3.27;;;25.30;50.90;;;;;;5088207;28;20462;-77
2022/08/11 08:58:59;;;;;;;7.23;3.60;;;25.40;50.60;;;;;;5088295;28;20445;-77
2022/08/11 09:01:30;;;;;;;8.03;3.17;;;25.50;50.10;;;;;;5087204;28;20474;-78
2022/08/11 09:04:00;;;;;;;6.93;3.37;;;25.60;50.10;;;;;;5085808;28;20437;-78
2022/08/11 09:06:39;;;;;;;8.00;3.50;;;25.60;50.00;;;;;;5088437;28;20521;-78
2022/08/11 09:09:08;;;;;;;6.17;3.50;;;25.60;49.80;;;;;;5070173;28;20447;-78
2022/08/11 09:11:52;;;;;;;7.33;3.33;;;25.70;49.80;;;;;;5087939;28;20954;-78
2022/08/11 09:14:22;;;;;;;5.83;3.30;;;25.70;49.70;;;;;;5088298;28;20502;-77
2022/08/11 09:16:51;;;;;;;11.03;3.60;;;25.70;49.70;;;;;;5087763;28;21015;-77
2022/08/11 09:19:21;;;;;;;8.80;3.90;;;25.80;49.80;;;;;;5087206;28;20516;-77
2022/08/11 09:26:58;;;;;;;9.40;4.30;;;25.80;49.80;;;;;;5087904;28;20494;-77
2022/08/11 09:27:28;;;;;;;6.90;3.57;;;25.90;49.30;;;;;;5069568;28;20452;-76
2022/08/11 09:29:56;;;;;;;8.27;3.70;;;26.00;48.70;;;;;;5070133;28;20522;-77
2022/08/11 09:32:28;;;;;;;8.70;4.03;;;26.00;48.50;;;;;;5069046;28;20462;-78
2022/08/11 09:34:56;;;;;;;7.73;4.10;;;26.10;47.80;;;;;;5087966;28;20435;-77
2022/08/11 09:40:32;;;;;;;7.37;4.00;;;26.20;46.90;;;;;;5069713;28;20450;-77
2022/08/11 09:45:52;;;;;;;8.33;4.60;;;26.30;46.50;;;;;;5087292;28;20475;-77
2022/08/11 09:48:23;;;;;;;5.93;3.67;;;26.40;46.50;;;;;;5069612;28;20453;-78
2022/08/11 09:50:55;;;;;;;5.67;3.43;;;26.50;46.00;;;;;;5087742;28;20822;-78
2022/08/11 09:53:26;;;;;;;6.30;3.87;;;26.60;45.90;;;;;;5088441;28;20808;-77
2022/08/11 09:58:50;;;;;;;6.17;3.60;;;26.70;45.90;;;;;;5086604;28;21224;-78
2022/08/11 10:01:26;;;;;;;6.93;3.37;;;26.70;45.50;;;;;;5087048;28;20485;-76
2022/08/11 10:04:00;;;;;;;8.70;3.90;;;26.80;45.30;;;;;;5087866;28;20850;-77
2022/08/11 10:09:24;;;;;;;6.10;3.50;;;26.90;45.00;;;;;;5069217;28;20811;-78
2022/08/11 10:11:56;;;;;;;6.30;3.27;;;27.00;44.70;;;;;;5087539;28;20467;-77
2022/08/11 10:17:17;;;;;;;5.60;3.67;;;27.00;44.80;;;;;;5082540;28;20484;-77
2022/08/11 10:19:48;;;;;;;10.13;3.63;;;27.10;44.70;;;;;;5080797;28;20469;-79
2022/08/11 10:28:09;;;;;;;7.97;3.83;;;27.20;44.80;;;;;;5068611;28;20489;-78
2022/08/11 10:34:02;;;;;;;5.50;3.23;;;27.20;44.30;;;;;;5089200;28;20520;-77
2022/08/11 10:36:33;;;;;;;5.30;3.30;;;27.20;44.50;;;;;;5077891;28;20448;-78
2022/08/11 10:39:05;;;;;;;8.87;3.53;;;27.20;44.70;;;;;;5086035;28;20812;-78
2022/08/11 10:44:40;;;;;;;11.60;3.43;;;27.30;44.10;;;;;;5079017;28;20456;-78
2022/08/11 11:01:12;;;;;;;6.37;3.90;;;27.60;43.90;;;;;;5086345;28;20569;-78
2022/08/11 11:03:42;;;;;;;7.23;3.27;;;27.60;44.00;;;;;;5084356;28;20470;-76
2022/08/11 11:06:26;;;;;;;6.77;3.77;;;27.60;44.00;;;;;;5081070;28;20556;-78
2022/08/11 11:09:01;;;;;;;9.53;3.30;;;27.60;44.10;;;;;;5064974;28;20457;-76
2022/08/11 11:20:16;;;;;;;5.10;3.00;;;27.70;44.00;;;;;;5064304;28;20501;-77
2022/08/11 11:23:07;;;;;;;5.50;3.10;;;27.70;43.80;;;;;;5066972;28;20914;-78
2022/08/11 11:26:18;;;;;;;6.30;3.20;;;27.70;43.70;;;;;;5083253;28;20453;-78
2022/08/11 11:29:19;;;;;;;7.27;3.03;;;27.80;43.60;;;;;;5079131;28;20465;-78
2022/08/11 11:31:57;;;;;;;6.20;3.13;;;27.70;42.90;;;;;;5064908;28;20475;-78
2022/08/11 11:34:48;;;;;;;5.50;3.20;;;27.70;43.00;;;;;;5088338;28;20458;-78
2022/08/11 11:37:23;;;;;;;5.40;2.67;;;27.80;42.80;;;;;;5087511;28;20460;-78
2022/08/11 11:39:52;;;;;;;6.87;2.93;;;27.80;42.90;;;;;;5082449;28;20452;-79
2022/08/11 11:42:22;;;;;;;6.03;3.07;;;27.90;42.90;;;;;;5095840;28;20529;-77
2022/08/11 11:44:51;;;;;;;6.20;3.07;;;27.90;42.70;;;;;;5084595;28;20819;-77
2022/08/11 11:47:23;;;;;;;5.40;2.93;;;27.90;42.60;;;;;;5078671;28;20583;-77
2022/08/11 11:49:53;;;;;;;5.93;2.87;;;28.00;42.50;;;;;;5080265;28;20444;-77
2022/08/11 11:52:23;;;;;;;6.10;2.90;;;27.90;42.40;;;;;;5083201;28;20489;-77
2022/08/11 11:54:55;;;;;;;9.97;3.17;;;28.00;42.30;;;;;;5086303;28;20447;-78
2022/08/11 12:03:13;;;;;;;6.60;2.60;;;28.10;41.40;;;;;;5077681;28;20485;-76
2022/08/11 12:05:43;;;;;;;5.47;2.50;;;28.20;41.50;;;;;;5075538;28;20461;-78
2022/08/11 12:08:15;;;;;;;6.40;2.77;;;28.30;41.50;;;;;;5076264;28;20460;-78
2022/08/11 12:10:45;;;;;;;11.20;2.30;;;28.30;41.30;;;;;;5082593;28;20454;-78
2022/08/11 12:16:02;;;;;;;5.13;2.30;;;28.30;41.10;;;;;;5075430;28;20477;-78
2022/08/11 12:18:52;;;;;;;6.23;2.63;;;28.30;40.70;;;;;;5089826;28;20499;-77
2022/08/11 12:21:22;;;;;;;5.47;2.80;;;28.40;40.90;;;;;;5080710;28;20567;-78
2022/08/11 12:29:40;;;;;;;4.67;2.33;;;28.50;40.90;;;;;;5070381;28;20490;-78
2022/08/11 12:32:11;;;;;;;5.70;2.53;;;28.40;40.90;;;;;;5077657;28;21199;-79
2022/08/11 12:34:39;;;;;;;5.57;2.67;;;28.50;40.90;;;;;;5075199;28;20475;-78
2022/08/11 12:37:11;;;;;;;5.23;2.33;;;28.50;40.90;;;;;;5080928;28;20454;-77
2022/08/11 12:46:08;;;;;;;6.30;2.57;;;28.50;41.00;;;;;;4983042;28;20522;-78
2022/08/11 12:54:50;;;;;;;5.90;2.80;;;28.70;40.70;;;;;;5074673;28;20462;-78
2022/08/11 13:05:43;;;;;;;5.60;3.10;;;28.70;40.90;;;;;;5081275;28;20454;-78
2022/08/11 13:08:13;;;;;;;5.20;2.80;;;28.70;41.00;;;;;;5077962;28;20468;-78
2022/08/11 13:13:30;;;;;;;15.03;3.57;;;28.80;41.00;;;;;;5079931;28;20476;-78
2022/08/11 13:16:19;;;;;;;5.77;3.03;;;28.80;40.90;;;;;;5067058;28;20561;-78
2022/08/11 13:18:49;;;;;;;4.50;2.30;;;28.90;40.80;;;;;;5082446;28;20448;-78
2022/08/11 13:21:18;;;;;;;7.33;2.60;;;28.90;40.70;;;;;;5075970;28;20497;-77
2022/08/11 13:23:49;;;;;;;9.30;3.00;;;29.00;40.70;;;;;;5077576;28;20475;-77
2022/08/11 13:26:31;;;;;;;5.27;2.53;;;29.00;40.70;;;;;;5083349;28;20533;-78
2022/08/11 13:29:15;;;;;;;6.43;2.90;;;29.00;40.60;;;;;;5081255;28;20468;-77
2022/08/11 13:31:44;;;;;;;6.10;2.60;;;29.00;40.40;;;;;;5066644;28;20476;-78
2022/08/11 13:34:14;;;;;;;7.33;2.80;;;29.00;40.20;;;;;;5079108;28;20448;-78
2022/08/11 13:36:43;;;;;;;4.90;2.30;;;29.10;40.20;;;;;;5085637;28;20447;-78
2022/08/11 13:39:13;;;;;;;5.70;2.60;;;29.10;40.20;;;;;;5080407;28;20479;-78
2022/08/11 13:41:44;;;;;;;11.30;3.40;;;29.20;40.00;;;;;;5084885;28;20465;-77
2022/08/11 13:44:15;;;;;;;4.87;2.80;;;29.20;39.90;;;;;;5066139;28;20485;-78
2022/08/11 13:46:52;;;;;;;5.00;2.20;;;29.20;39.80;;;;;;5063963;28;20528;-76
2022/08/11 13:49:21;;;;;;;6.67;2.60;;;29.20;39.70;;;;;;5099954;28;20486;-77
2022/08/11 13:51:51;;;;;;;8.93;2.80;;;29.20;39.70;;;;;;5074510;28;20455;-78
2022/08/11 13:54:22;;;;;;;8.07;2.80;;;29.20;39.40;;;;;;5082317;28;20541;-79
2022/08/11 13:56:55;;;;;;;5.00;2.50;;;29.30;39.50;;;;;;5084384;28;20456;-77
2022/08/11 13:59:24;;;;;;;8.00;2.90;;;29.30;39.40;;;;;;5066017;28;20475;-76
2022/08/11 14:02:02;;;;;;;8.83;2.70;;;29.40;39.30;;;;;;5088665;28;21010;-79
2022/08/11 14:04:54;;;;;;;7.13;2.60;;;29.50;39.40;;;;;;5087791;28;20478;-77
2022/08/11 14:07:25;;;;;;;7.43;3.30;;;29.50;39.50;;;;;;5065086;28;20462;-78
2022/08/11 14:09:57;;;;;;;4.60;2.10;;;29.60;39.50;;;;;;5072249;28;20452;-78
2022/08/11 14:15:18;;;;;;;10.47;3.13;;;29.60;39.50;;;;;;5065789;28;20452;-77
2022/08/11 14:17:52;;;;;;;5.50;2.43;;;29.60;39.60;;;;;;5085020;28;20494;-78
2022/08/11 14:20:21;;;;;;;5.07;2.50;;;29.60;39.50;;;;;;5083806;28;20465;-78
2022/08/11 14:23:09;;;;;;;7.47;2.73;;;29.60;39.30;;;;;;5087943;28;20491;-78
2022/08/11 14:26:22;;;;;;;5.90;2.53;;;29.60;39.20;;;;;;5087187;28;20626;-78
2022/08/11 14:28:34;;;;;;;7.00;2.77;;;29.60;39.10;;;;;;5086626;28;20469;-78
2022/08/11 14:31:14;;;;;;;4.83;2.60;;;29.60;39.00;;;;;;5086138;28;20503;-78
2022/08/11 14:33:43;;;;;;;4.93;2.00;;;29.60;39.10;;;;;;5079822;28;21173;-77
2022/08/11 14:36:35;;;;;;;7.13;2.50;;;29.60;38.50;;;;;;5081501;28;20608;-78
2022/08/11 14:39:10;;;;;;;11.13;2.70;;;29.70;38.30;;;;;;5080980;28;20456;-78
2022/08/11 14:47:33;;;;;;;5.17;2.50;;;29.70;38.00;;;;;;5086450;28;20476;-79
2022/08/11 14:50:02;;;;;;;6.03;2.30;;;29.80;38.00;;;;;;5069118;28;20455;-78
2022/08/11 14:52:43;;;;;;;5.60;1.97;;;29.80;37.90;;;;;;5077529;28;20708;-78
2022/08/11 14:58:00;;;;;;;8.70;2.70;;;29.90;38.10;;;;;;5052917;28;20463;-77
2022/08/11 15:00:30;;;;;;;6.83;2.63;;;29.90;38.10;;;;;;5074978;28;20468;-77
2022/08/11 15:03:10;;;;;;;6.10;2.17;;;29.80;38.00;;;;;;5072574;28;21343;-77
2022/08/11 15:05:44;;;;;;;7.87;2.53;;;29.90;38.00;;;;;;5076573;28;20533;-76
2022/08/11 15:12:07;;;;;;;8.70;2.20;;;29.80;38.10;;;;;;5073019;28;20453;-77
2022/08/11 15:14:00;;;;;;;5.90;2.80;;;29.80;38.20;;;;;;5076948;28;20473;-76
2022/08/11 15:19:18;;;;;;;5.73;2.07;;;29.90;38.30;;;;;;5078393;28;20457;-78
2022/08/11 15:24:34;;;;;;;6.50;2.40;;;29.80;38.20;;;;;;5074367;28;20581;-78
2022/08/11 15:38:44;;;;;;;6.57;2.20;;;30.30;37.50;;;;;;5075510;28;20452;-78
2022/08/11 15:47:17;;;;;;;7.93;2.23;;;30.30;37.20;;;;;;5074403;28;20466;-78
2022/08/11 15:49:51;;;;;;;8.33;2.33;;;30.30;37.20;;;;;;5075436;28;20449;-78
2022/08/11 15:52:47;;;;;;;4.73;2.50;;;30.40;37.20;;;;;;5075356;28;20481;-77
2022/08/11 15:55:16;;;;;;;5.00;1.80;;;30.40;37.30;;;;;;5077467;28;20546;-78
2022/08/11 16:06:41;;;;;;;11.37;2.90;;;30.50;37.20;;;;;;5092290;27;20482;-77
2022/08/11 16:09:22;;;;;;;6.20;2.40;;;30.50;37.30;;;;;;5073760;28;20471;-78
2022/08/11 16:11:52;;;;;;;5.80;2.30;;;30.50;37.30;;;;;;5064525;28;20455;-78
2022/08/11 16:17:11;;;;;;;5.07;2.60;;;30.50;37.30;;;;;;5073853;28;20974;-77
2022/08/11 16:19:42;;;;;;;8.57;2.60;;;30.50;37.40;;;;;;5069557;28;20462;-77
2022/08/11 16:22:14;;;;;;;6.30;2.63;;;30.50;37.50;;;;;;5070180;28;21042;-77
2022/08/11 16:24:45;;;;;;;4.53;2.30;;;30.60;37.50;;;;;;5071898;28;20502;-78
2022/08/11 16:27:38;;;;;;;4.80;2.47;;;30.60;37.50;;;;;;5061767;28;20480;-76
2022/08/11 16:30:09;;;;;;;9.20;2.33;;;30.60;37.40;;;;;;5067719;28;20501;-78
2022/08/11 16:32:40;;;;;;;6.00;2.33;;;30.60;37.50;;;;;;5060162;28;20472;-78
2022/08/11 16:40:54;;;;;;;5.40;2.57;;;30.60;37.50;;;;;;5051748;28;20460;-78
2022/08/11 16:49:03;;;;;;;7.53;2.53;;;30.40;37.70;;;;;;5069824;28;20496;-78
2022/08/11 16:51:32;;;;;;;9.80;2.63;;;30.40;37.70;;;;;;5073513;28;20455;-77
2022/08/11 16:54:02;;;;;;;5.97;2.63;;;30.40;37.70;;;;;;5069840;28;20516;-77
2022/08/11 16:56:37;;;;;;;4.97;2.90;;;30.40;37.70;;;;;;5072709;28;20461;-78
2022/08/11 16:59:14;;;;;;;5.73;2.33;;;30.30;37.60;;;;;;5057675;28;20472;-78
2022/08/11 17:01:48;;;;;;;9.70;2.80;;;30.30;37.60;;;;;;5073224;28;20483;-77
2022/08/11 17:13:27;;;;;;;5.60;2.53;;;30.20;37.90;;;;;;5074526;28;20566;-78
2022/08/11 17:16:06;;;;;;;5.47;2.60;;;30.20;38.00;;;;;;5084632;28;21899;-77
2022/08/11 17:18:42;;;;;;;8.97;2.87;;;30.20;38.00;;;;;;5070704;28;20484;-76
2022/08/11 17:21:14;;;;;;;4.97;2.60;;;30.10;38.00;;;;;;5058432;28;20472;-77
2022/08/11 17:23:45;;;;;;;5.07;2.27;;;30.20;38.00;;;;;;5061446;28;21016;-77
2022/08/11 17:26:22;;;;;;;4.97;2.63;;;30.10;38.10;;;;;;5077689;28;20490;-78
2022/08/11 17:28:55;;;;;;;9.20;2.87;;;30.10;38.20;;;;;;5060517;28;20454;-77
2022/08/11 17:36:58;;;;;;;10.73;2.80;;;30.00;38.30;;;;;;5058189;28;20473;-76
2022/08/11 17:39:29;;;;;;;6.00;2.57;;;29.90;38.30;;;;;;5056355;28;20507;-77
2022/08/11 17:50:22;;;;;;;7.70;2.97;;;29.80;38.60;;;;;;5050216;28;20467;-76
2022/08/11 18:01:14;;;;;;;9.90;2.40;;;29.60;38.80;;;;;;5050958;28;20477;-77
2022/08/11 18:03:43;;;;;;;5.60;2.60;;;29.50;38.80;;;;;;5045929;28;20478;-76
2022/08/11 18:06:27;;;;;;;8.23;2.87;;;29.40;38.90;;;;;;5049709;28;20652;-78
